createdAt,value
2023-05-14T00:01:15.148Z,48.82
2023-05-14T00:06:11.721Z,49.12
2023-05-14T00:11:08.748Z,49.36
2023-05-14T00:16:05.854Z,49.10
2023-05-14T00:21:04.458Z,49.75
2023-05-14T00:26:02.302Z,50.50
2023-05-14T00:30:58.939Z,51.24
2023-05-14T00:35:55.665Z,51.45
2023-05-14T00:40:53.224Z,51.54
2023-05-14T00:45:50.293Z,51.72
2023-05-14T00:50:47.210Z,51.51
2023-05-14T00:55:44.701Z,51.42
2023-05-14T01:00:42.206Z,51.32
2023-05-14T01:05:43.567Z,52.17
2023-05-14T01:10:44.861Z,51.08
2023-05-14T01:15:44.272Z,50.84
2023-05-14T01:20:40.963Z,51.26
2023-05-14T01:25:38.858Z,52.15
2023-05-14T01:30:36.842Z,53.87
2023-05-14T01:35:33.841Z,55.69
2023-05-14T01:40:32.054Z,55.87
2023-05-14T01:45:30.173Z,55.04
2023-05-14T01:50:27.033Z,54.12
2023-05-14T01:55:24.068Z,53.39
2023-05-14T02:00:22.033Z,52.48
2023-05-14T02:05:19.796Z,52.06
2023-05-14T02:10:16.491Z,51.82
2023-05-14T02:15:18.257Z,51.93
2023-05-14T02:20:17.253Z,51.59
2023-05-14T02:25:15.254Z,50.93
2023-05-14T02:30:12.109Z,50.77
2023-05-14T02:35:09.634Z,50.76
2023-05-14T02:40:07.674Z,49.92
2023-05-14T02:45:06.190Z,49.83
2023-05-14T02:50:06.001Z,50.08
2023-05-14T02:55:02.595Z,49.28
2023-05-14T02:59:59.293Z,48.46
2023-05-14T03:04:56.969Z,49.27
2023-05-14T03:09:53.649Z,49.57
2023-05-14T03:14:50.422Z,54.41
2023-05-14T03:19:47.554Z,58.76
2023-05-14T03:24:44.946Z,58.43
2023-05-14T03:29:41.842Z,59.26
2023-05-14T03:34:38.622Z,56.41
2023-05-14T03:39:35.514Z,56.46
2023-05-14T03:44:36.025Z,55.79
2023-05-14T03:49:33.603Z,55.57
2023-05-14T03:54:30.511Z,55.08
2023-05-14T03:59:27.213Z,54.79
2023-05-14T04:04:24.626Z,54.83
2023-05-14T04:09:21.416Z,54.86
2023-05-14T04:14:18.012Z,55.54
2023-05-14T04:19:15.496Z,55.58
2023-05-14T04:24:12.988Z,54.87
2023-05-14T04:29:09.795Z,55.07
2023-05-14T04:34:06.449Z,55.82
2023-05-14T04:39:03.688Z,57.34
2023-05-14T04:44:01.538Z,56.63
2023-05-14T04:48:58.173Z,57.16
2023-05-14T04:53:54.915Z,58.04
2023-05-14T04:58:51.599Z,58.32
2023-05-14T05:03:51.767Z,57.03
2023-05-14T05:08:48.510Z,56.42
2023-05-14T05:13:45.402Z,56.22
2023-05-14T05:18:42.234Z,56.14
2023-05-14T05:23:39.592Z,55.50
2023-05-14T05:28:36.206Z,54.38
2023-05-14T05:33:34.024Z,53.64
2023-05-14T05:38:30.860Z,52.95
2023-05-14T05:43:28.217Z,52.43
2023-05-14T05:48:24.946Z,53.08
2023-05-14T05:53:21.675Z,53.04
2023-05-14T05:58:18.516Z,58.50
2023-05-14T06:03:15.769Z,59.19
2023-05-14T06:08:12.373Z,58.17
2023-05-14T06:13:09.022Z,59.10
2023-05-14T06:18:05.739Z,59.00
2023-05-14T06:23:03.064Z,58.56
2023-05-14T06:27:59.903Z,58.56
2023-05-14T06:32:56.721Z,58.94
2023-05-14T06:37:53.458Z,60.77
2023-05-14T06:42:50.953Z,60.54
2023-05-14T06:47:47.798Z,59.84
2023-05-14T06:52:44.559Z,56.95
2023-05-14T06:57:41.337Z,44.35
2023-05-14T07:02:38.606Z,40.34
2023-05-14T07:07:35.241Z,38.49
2023-05-14T07:12:32.106Z,38.00
2023-05-14T07:17:29.331Z,37.14
2023-05-14T07:22:28.316Z,38.26
2023-05-14T07:27:25.248Z,37.71
2023-05-14T07:32:21.980Z,36.84
2023-05-14T07:37:18.765Z,37.42
2023-05-14T07:42:28.359Z,37.45
2023-05-14T07:47:36.283Z,36.45
2023-05-14T07:52:34.011Z,36.17
2023-05-14T07:57:31.450Z,35.20
2023-05-14T08:02:28.438Z,34.08
2023-05-14T08:07:26.801Z,34.18
2023-05-14T08:12:28.159Z,33.08
2023-05-14T08:17:25.609Z,33.09
2023-05-14T08:22:22.477Z,33.23
2023-05-14T08:27:19.217Z,32.93
2023-05-14T08:32:23.407Z,32.18
2023-05-14T08:37:21.352Z,32.53
2023-05-14T08:42:20.615Z,32.64
2023-05-14T08:47:18.259Z,32.73
2023-05-14T08:52:16.292Z,32.24
2023-05-14T08:57:14.252Z,31.83
2023-05-14T09:02:13.314Z,31.25
2023-05-14T09:07:10.814Z,32.59
2023-05-14T09:12:07.912Z,32.06
2023-05-14T09:17:05.671Z,32.07
2023-05-14T09:22:02.407Z,31.85
2023-05-14T09:26:59.038Z,32.06
2023-05-14T09:31:56.078Z,32.02
2023-05-14T09:36:57.434Z,30.76
2023-05-14T09:41:54.316Z,30.58
2023-05-14T09:46:51.834Z,31.32
2023-05-14T09:51:49.085Z,31.73
2023-05-14T09:56:47.696Z,31.71
2023-05-14T10:01:44.938Z,30.62
2023-05-14T10:06:42.786Z,30.78
2023-05-14T10:11:42.422Z,31.37
2023-05-14T10:16:43.618Z,29.72
2023-05-14T10:21:41.365Z,30.04
2023-05-14T10:26:39.641Z,30.73
2023-05-14T10:31:47.729Z,30.78
2023-05-14T10:36:45.129Z,30.12
2023-05-14T10:41:44.592Z,31.05
2023-05-14T10:46:41.492Z,31.47
2023-05-14T10:51:39.341Z,30.96
2023-05-14T10:56:36.955Z,31.46
2023-05-14T11:01:34.349Z,30.89
2023-05-14T11:06:31.715Z,30.91
2023-05-14T11:11:29.108Z,31.64
2023-05-14T11:16:30.278Z,31.79
2023-05-14T11:21:27.454Z,32.45
2023-05-14T11:26:24.419Z,32.45
2023-05-14T11:31:23.700Z,33.06
2023-05-14T11:36:20.572Z,32.81
2023-05-14T11:41:17.275Z,32.92
2023-05-14T11:46:18.071Z,32.56
2023-05-14T11:51:15.787Z,32.59
2023-05-14T11:56:12.636Z,32.61
2023-05-14T12:01:13.111Z,31.90
2023-05-14T12:06:09.967Z,31.95
2023-05-14T12:11:08.720Z,32.38
2023-05-14T12:16:05.599Z,31.97
2023-05-14T12:21:03.059Z,31.99
2023-05-14T12:26:02.145Z,31.88
2023-05-14T12:30:59.600Z,31.71
2023-05-14T12:36:07.393Z,32.77
2023-05-14T12:41:10.713Z,32.40
2023-05-14T12:46:09.495Z,32.69
2023-05-14T12:51:08.309Z,32.46
2023-05-14T12:56:05.550Z,32.86
2023-05-14T13:01:04.954Z,31.84
2023-05-14T13:06:02.284Z,32.86
2023-05-14T13:10:58.940Z,32.97
2023-05-14T13:15:55.656Z,32.18
2023-05-14T13:20:52.510Z,32.57
2023-05-14T13:25:50.844Z,32.33
2023-05-14T13:31:04.526Z,32.37
2023-05-14T13:36:01.262Z,32.18
2023-05-14T13:41:01.655Z,31.89
2023-05-14T13:45:58.635Z,31.65
2023-05-14T13:50:55.551Z,31.77
2023-05-14T13:55:55.745Z,31.64
2023-05-14T14:00:53.500Z,31.93
2023-05-14T14:05:51.908Z,32.22
2023-05-14T14:10:48.815Z,32.41
2023-05-14T14:15:45.908Z,32.30
2023-05-14T14:20:43.411Z,32.16
2023-05-14T14:25:40.347Z,32.35
2023-05-14T14:30:39.503Z,32.31
2023-05-14T14:35:36.852Z,32.56
2023-05-14T14:40:34.818Z,32.46
2023-05-14T14:45:31.698Z,32.52
2023-05-14T14:50:28.440Z,32.47
2023-05-14T14:55:26.695Z,33.08
2023-05-14T15:00:24.844Z,32.55
2023-05-14T15:05:21.686Z,32.67
2023-05-14T15:10:18.357Z,32.74
2023-05-14T15:15:15.275Z,32.73
2023-05-14T15:20:13.055Z,33.00
2023-05-14T15:25:09.990Z,32.51
2023-05-14T15:30:07.537Z,32.33
2023-05-14T15:35:06.501Z,32.89
2023-05-14T15:40:05.990Z,32.46
2023-05-14T15:45:03.239Z,32.75
2023-05-14T15:50:00.194Z,32.91
2023-05-14T15:54:56.913Z,32.59
2023-05-14T15:59:54.176Z,33.20
2023-05-14T16:04:50.995Z,32.75
2023-05-14T16:09:51.220Z,33.00
2023-05-14T16:14:48.082Z,33.17
2023-05-14T16:19:45.447Z,33.23
2023-05-14T16:24:42.244Z,33.35
2023-05-14T16:29:39.212Z,33.81
2023-05-14T16:34:36.159Z,33.88
2023-05-14T16:39:33.944Z,33.27
2023-05-14T16:44:31.057Z,33.47
2023-05-14T16:49:27.938Z,33.06
2023-05-14T16:54:24.581Z,32.12
2023-05-14T16:59:22.069Z,31.90
2023-05-14T17:04:22.261Z,32.35
2023-05-14T17:09:19.308Z,32.36
2023-05-14T17:14:16.452Z,32.37
2023-05-14T17:19:14.057Z,32.47
2023-05-14T17:24:11.018Z,32.45
2023-05-14T17:29:07.729Z,32.53
2023-05-14T17:34:04.421Z,32.19
2023-05-14T17:39:01.911Z,32.28
2023-05-14T17:43:58.849Z,32.13
2023-05-14T17:48:55.957Z,32.25
2023-05-14T17:53:53.124Z,32.40
2023-05-14T17:58:50.693Z,32.27
2023-05-14T18:03:47.579Z,32.34
2023-05-14T18:08:44.556Z,32.64
2023-05-14T18:13:41.416Z,32.66
2023-05-14T18:18:39.255Z,32.65
2023-05-14T18:23:36.126Z,32.85
2023-05-14T18:28:33.131Z,32.97
2023-05-14T18:33:30.512Z,33.20
2023-05-14T18:38:27.896Z,33.56
2023-05-14T18:43:24.603Z,33.57
2023-05-14T18:48:21.665Z,34.14
2023-05-14T18:53:18.353Z,34.79
2023-05-14T18:58:17.030Z,35.22
2023-05-14T19:03:14.048Z,35.65
2023-05-14T19:08:10.859Z,35.98
2023-05-14T19:13:07.643Z,36.47
2023-05-14T19:18:06.298Z,36.97
2023-05-14T19:23:03.264Z,37.57
2023-05-14T19:28:01.395Z,38.13
2023-05-14T19:32:58.277Z,38.69
2023-05-14T19:37:58.566Z,38.98
2023-05-14T19:42:57.933Z,39.91
2023-05-14T19:47:54.615Z,40.56
2023-05-14T19:52:51.247Z,41.13
2023-05-14T19:57:48.606Z,41.32
2023-05-14T20:02:45.569Z,42.01
2023-05-14T20:07:43.718Z,41.98
2023-05-14T20:12:40.686Z,42.53
2023-05-14T20:17:38.383Z,42.60
2023-05-14T20:22:35.298Z,42.50
2023-05-14T20:27:32.059Z,42.86
2023-05-14T20:32:28.816Z,43.15
2023-05-14T20:37:26.200Z,43.83
2023-05-14T20:42:23.166Z,44.32
2023-05-14T20:47:22.634Z,44.66
2023-05-14T20:52:19.341Z,48.15
2023-05-14T20:57:17.064Z,50.11
2023-05-14T21:02:14.033Z,49.94
2023-05-14T21:07:10.828Z,47.98
2023-05-14T21:12:07.803Z,49.06
2023-05-14T21:17:05.270Z,51.75
2023-05-14T21:22:02.068Z,55.52
2023-05-14T21:26:58.763Z,55.19
2023-05-14T21:31:55.825Z,56.01
2023-05-14T21:36:53.316Z,57.37
2023-05-14T21:41:50.003Z,56.18
2023-05-14T21:46:46.858Z,55.11
2023-05-14T21:51:43.580Z,55.05
2023-05-14T21:56:40.866Z,54.61
2023-05-14T22:01:50.627Z,53.43
2023-05-14T22:06:54.504Z,52.72
2023-05-14T22:11:51.799Z,52.03
2023-05-14T22:16:48.551Z,53.43
2023-05-14T22:21:45.303Z,53.33
2023-05-14T22:26:41.951Z,52.60
2023-05-14T22:31:39.351Z,52.60
2023-05-14T22:36:36.176Z,52.38
2023-05-14T22:41:32.741Z,52.19
2023-05-14T22:46:29.624Z,52.40
2023-05-14T22:51:26.921Z,52.23
2023-05-14T22:56:23.633Z,51.86
2023-05-14T23:01:20.545Z,51.22
2023-05-14T23:06:17.188Z,52.49
2023-05-14T23:11:14.822Z,52.60
2023-05-14T23:16:11.425Z,51.71
2023-05-14T23:21:08.409Z,53.62
2023-05-14T23:26:05.542Z,55.94
2023-05-14T23:31:02.997Z,57.83
2023-05-14T23:35:59.774Z,56.41
2023-05-14T23:40:56.358Z,57.42
2023-05-14T23:45:53.095Z,57.42
2023-05-14T23:50:50.928Z,56.29
2023-05-14T23:55:47.583Z,55.95
